sensor_id;sensor_type;location;lat;lon;timestamp;pressure;altitude;pressure_sealevel;temperature;humidity
31088;BME280;17745;55.914;37.554;2023-02-15T00:00:31;99415.47;;;0.67;56.86
31088;BME280;17745;55.914;37.554;2023-02-15T00:03:02;99420.34;;;0.55;57.03
31088;BME280;17745;55.914;37.554;2023-02-15T00:05:32;99401.84;;;0.50;57.01
31088;BME280;17745;55.914;37.554;2023-02-15T00:08:01;99437.50;;;0.34;57.36
31088;BME280;17745;55.914;37.554;2023-02-15T00:10:30;99419.19;;;0.57;56.87
31088;BME280;17745;55.914;37.554;2023-02-15T00:13:01;99431.41;;;0.72;56.64
31088;BME280;17745;55.914;37.554;2023-02-15T00:15:30;99422.41;;;0.60;56.73
31088;BME280;17745;55.914;37.554;2023-02-15T00:17:58;99415.31;;;0.68;56.52
31088;BME280;17745;55.914;37.554;2023-02-15T00:20:43;99421.69;;;0.66;56.60
31088;BME280;17745;55.914;37.554;2023-02-15T00:23:14;99409.44;;;0.81;56.32
31088;BME280;17745;55.914;37.554;2023-02-15T00:25:42;99431.09;;;0.67;56.55
31088;BME280;17745;55.914;37.554;2023-02-15T00:28:11;99437.94;;;0.83;56.25
31088;BME280;17745;55.914;37.554;2023-02-15T00:30:39;99409.38;;;0.60;56.64
31088;BME280;17745;55.914;37.554;2023-02-15T00:33:09;99420.97;;;0.72;56.52
31088;BME280;17745;55.914;37.554;2023-02-15T00:35:42;99421.03;;;0.79;56.44
31088;BME280;17745;55.914;37.554;2023-02-15T00:38:11;99395.38;;;0.61;56.63
31088;BME280;17745;55.914;37.554;2023-02-15T00:40:48;99406.25;;;0.34;57.10
31088;BME280;17745;55.914;37.554;2023-02-15T00:43:18;99434.19;;;0.40;57.00
31088;BME280;17745;55.914;37.554;2023-02-15T00:45:49;99435.88;;;0.33;57.07
31088;BME280;17745;55.914;37.554;2023-02-15T00:48:17;99406.97;;;0.43;56.79
31088;BME280;17745;55.914;37.554;2023-02-15T00:50:45;99421.87;;;0.19;57.21
31088;BME280;17745;55.914;37.554;2023-02-15T00:53:16;99428.06;;;0.48;56.66
31088;BME280;17745;55.914;37.554;2023-02-15T00:55:47;99436.78;;;0.55;56.37
31088;BME280;17745;55.914;37.554;2023-02-15T00:58:15;99446.41;;;0.40;56.65
31088;BME280;17745;55.914;37.554;2023-02-15T01:00:49;99447.47;;;0.31;56.72
31088;BME280;17745;55.914;37.554;2023-02-15T01:03:19;99417.13;;;0.53;56.25
31088;BME280;17745;55.914;37.554;2023-02-15T01:05:48;99406.97;;;0.43;56.25
31088;BME280;17745;55.914;37.554;2023-02-15T01:08:16;99444.97;;;0.52;56.09
31088;BME280;17745;55.914;37.554;2023-02-15T01:10:47;99445.88;;;0.60;55.93
31088;BME280;17745;55.914;37.554;2023-02-15T01:13:17;99438.50;;;0.63;55.79
31088;BME280;17745;55.914;37.554;2023-02-15T01:15:44;99445.59;;;0.69;55.70
31088;BME280;17745;55.914;37.554;2023-02-15T01:18:12;99444.87;;;0.61;55.71
31088;BME280;17745;55.914;37.554;2023-02-15T01:20:41;99450.97;;;0.68;55.43
31088;BME280;17745;55.914;37.554;2023-02-15T01:23:08;99470.19;;;0.67;55.45
31088;BME280;17745;55.914;37.554;2023-02-15T01:25:36;99425.03;;;0.60;55.44
31088;BME280;17745;55.914;37.554;2023-02-15T01:28:06;99435.25;;;0.46;55.69
31088;BME280;17745;55.914;37.554;2023-02-15T01:30:35;99456.91;;;0.47;55.68
31088;BME280;17745;55.914;37.554;2023-02-15T01:33:02;99462.66;;;0.42;55.72
31088;BME280;17745;55.914;37.554;2023-02-15T01:35:33;99452.78;;;0.22;56.02
31088;BME280;17745;55.914;37.554;2023-02-15T01:38:00;99458.59;;;0.39;55.62
31088;BME280;17745;55.914;37.554;2023-02-15T01:40:27;99455.84;;;0.41;55.53
31088;BME280;17745;55.914;37.554;2023-02-15T01:42:57;99464.62;;;0.40;55.47
31088;BME280;17745;55.914;37.554;2023-02-15T01:45:28;99455.72;;;0.49;55.22
31088;BME280;17745;55.914;37.554;2023-02-15T01:48:01;99462.13;;;0.62;55.04
31088;BME280;17745;55.914;37.554;2023-02-15T01:50:32;99473.25;;;0.70;54.87
31088;BME280;17745;55.914;37.554;2023-02-15T01:53:05;99472.44;;;0.70;54.67
31088;BME280;17745;55.914;37.554;2023-02-15T01:55:38;99463.09;;;0.76;54.55
31088;BME280;17745;55.914;37.554;2023-02-15T01:58:08;99460.31;;;0.77;54.41
31088;BME280;17745;55.914;37.554;2023-02-15T02:00:38;99493.00;;;0.80;54.21
31088;BME280;17745;55.914;37.554;2023-02-15T02:03:08;99480.19;;;0.63;54.13
31088;BME280;17745;55.914;37.554;2023-02-15T02:05:38;99467.44;;;0.68;54.12
31088;BME280;17745;55.914;37.554;2023-02-15T02:08:07;99467.22;;;0.70;53.88
31088;BME280;17745;55.914;37.554;2023-02-15T02:10:37;99465.34;;;0.64;53.65
31088;BME280;17745;55.914;37.554;2023-02-15T02:13:06;99463.91;;;0.46;53.74
31088;BME280;17745;55.914;37.554;2023-02-15T02:15:42;99459.69;;;0.45;53.66
31088;BME280;17745;55.914;37.554;2023-02-15T02:18:35;99442.28;;;0.46;53.58
31088;BME280;17745;55.914;37.554;2023-02-15T02:21:41;99474.44;;;0.53;53.29
31088;BME280;17745;55.914;37.554;2023-02-15T02:24:47;99460.31;;;0.32;53.48
31088;BME280;17745;55.914;37.554;2023-02-15T02:27:22;99501.47;;;0.37;53.39
31088;BME280;17745;55.914;37.554;2023-02-15T02:30:45;99497.59;;;0.33;53.24
31088;BME280;17745;55.914;37.554;2023-02-15T02:33:44;99498.44;;;0.10;53.66
31088;BME280;17745;55.914;37.554;2023-02-15T02:36:22;99481.25;;;0.24;53.34
31088;BME280;17745;55.914;37.554;2023-02-15T02:39:05;99487.72;;;0.43;53.06
31088;BME280;17745;55.914;37.554;2023-02-15T02:42:01;99470.62;;;0.25;53.27
31088;BME280;17745;55.914;37.554;2023-02-15T02:44:38;99500.13;;;0.41;52.96
31088;BME280;17745;55.914;37.554;2023-02-15T02:47:12;99487.91;;;0.41;52.94
31088;BME280;17745;55.914;37.554;2023-02-15T02:49:43;99494.34;;;0.31;53.01
31088;BME280;17745;55.914;37.554;2023-02-15T02:52:34;99507.19;;;0.32;52.90
31088;BME280;17745;55.914;37.554;2023-02-15T02:55:04;99467.13;;;0.18;53.01
31088;BME280;17745;55.914;37.554;2023-02-15T02:57:51;99500.25;;;0.09;53.17
31088;BME280;17745;55.914;37.554;2023-02-15T03:00:21;99502.34;;;0.14;53.10
31088;BME280;17745;55.914;37.554;2023-02-15T03:02:55;99525.12;;;0.12;53.08
31088;BME280;17745;55.914;37.554;2023-02-15T03:05:28;99515.66;;;0.34;52.71
31088;BME280;17745;55.914;37.554;2023-02-15T03:08:04;99496.94;;;0.31;52.74
31088;BME280;17745;55.914;37.554;2023-02-15T03:10:37;99495.75;;;0.03;53.15
31088;BME280;17745;55.914;37.554;2023-02-15T03:13:07;99503.88;;;0.23;52.83
31088;BME280;17745;55.914;37.554;2023-02-15T03:15:38;99513.66;;;0.21;52.88
31088;BME280;17745;55.914;37.554;2023-02-15T03:18:30;99503.88;;;0.23;52.81
31088;BME280;17745;55.914;37.554;2023-02-15T03:21:31;99519.44;;;0.32;52.80
31088;BME280;17745;55.914;37.554;2023-02-15T03:24:08;99506.22;;;-0.05;53.40
31088;BME280;17745;55.914;37.554;2023-02-15T03:26:39;99517.22;;;0.05;53.29
31088;BME280;17745;55.914;37.554;2023-02-15T03:29:11;99519.22;;;-0.05;53.50
31088;BME280;17745;55.914;37.554;2023-02-15T03:31:47;99524.44;;;0.18;53.20
31088;BME280;17745;55.914;37.554;2023-02-15T03:34:20;99508.16;;;0.16;53.20
31088;BME280;17745;55.914;37.554;2023-02-15T03:36:55;99503.94;;;0.15;53.17
31088;BME280;17745;55.914;37.554;2023-02-15T03:39:33;99505.84;;;0.21;53.12
31088;BME280;17745;55.914;37.554;2023-02-15T03:42:04;99473.47;;;0.01;53.22
31088;BME280;17745;55.914;37.554;2023-02-15T03:44:47;99522.38;;;-0.10;53.19
31088;BME280;17745;55.914;37.554;2023-02-15T03:47:21;99528.13;;;0.01;52.80
31088;BME280;17745;55.914;37.554;2023-02-15T03:49:53;99523.19;;;-0.09;52.91
31088;BME280;17745;55.914;37.554;2023-02-15T03:52:51;99525.78;;;-0.09;52.65
31088;BME280;17745;55.914;37.554;2023-02-15T03:55:24;99534.22;;;-0.07;52.33
31088;BME280;17745;55.914;37.554;2023-02-15T03:57:55;99505.47;;;-0.14;52.27
31088;BME280;17745;55.914;37.554;2023-02-15T04:00:58;99525.66;;;-0.16;52.17
31088;BME280;17745;55.914;37.554;2023-02-15T04:03:49;99527.47;;;-0.17;52.10
31088;BME280;17745;55.914;37.554;2023-02-15T04:06:27;99526.59;;;-0.09;51.91
31088;BME280;17745;55.914;37.554;2023-02-15T04:09:06;99519.94;;;-0.35;52.06
31088;BME280;17745;55.914;37.554;2023-02-15T04:11:54;99525.84;;;-0.18;51.71
31088;BME280;17745;55.914;37.554;2023-02-15T04:14:22;99524.56;;;-0.22;51.63
31088;BME280;17745;55.914;37.554;2023-02-15T04:17:07;99529.25;;;-0.17;51.47
31088;BME280;17745;55.914;37.554;2023-02-15T04:19:47;99514.38;;;-0.08;51.32
31088;BME280;17745;55.914;37.554;2023-02-15T04:22:32;99513.91;;;-0.12;51.25
31088;BME280;17745;55.914;37.554;2023-02-15T04:25:24;99513.00;;;-0.19;51.28
31088;BME280;17745;55.914;37.554;2023-02-15T04:27:53;99522.94;;;-0.23;51.18
31088;BME280;17745;55.914;37.554;2023-02-15T04:30:25;99518.50;;;-0.37;51.29
31088;BME280;17745;55.914;37.554;2023-02-15T04:32:54;99511.72;;;-0.23;51.18
31088;BME280;17745;55.914;37.554;2023-02-15T04:35:26;99525.12;;;-0.35;51.31
31088;BME280;17745;55.914;37.554;2023-02-15T04:37:54;99524.09;;;-0.49;51.50
31088;BME280;17745;55.914;37.554;2023-02-15T04:40:24;99542.94;;;-0.47;51.48
31088;BME280;17745;55.914;37.554;2023-02-15T04:42:53;99522.94;;;-0.46;51.42
31088;BME280;17745;55.914;37.554;2023-02-15T04:45:21;99529.72;;;-0.68;51.86
31088;BME280;17745;55.914;37.554;2023-02-15T04:47:49;99508.41;;;-0.64;51.79
31088;BME280;17745;55.914;37.554;2023-02-15T04:50:19;99529.16;;;-0.55;51.73
31088;BME280;17745;55.914;37.554;2023-02-15T04:52:48;99518.94;;;-0.57;51.77
31088;BME280;17745;55.914;37.554;2023-02-15T04:55:17;99513.97;;;-0.67;51.78
31088;BME280;17745;55.914;37.554;2023-02-15T04:57:49;99536.72;;;-0.69;51.82
31088;BME280;17745;55.914;37.554;2023-02-15T05:00:17;99535.53;;;-0.58;51.58
31088;BME280;17745;55.914;37.554;2023-02-15T05:02:46;99524.88;;;-0.72;51.59
31088;BME280;17745;55.914;37.554;2023-02-15T05:05:14;99512.50;;;-0.69;51.59
31088;BME280;17745;55.914;37.554;2023-02-15T05:07:48;99474.63;;;-1.04;52.21
31088;BME280;17745;55.914;37.554;2023-02-15T05:10:20;99536.81;;;-0.94;52.09
31088;BME280;17745;55.914;37.554;2023-02-15T05:13:01;99541.56;;;-0.97;52.10
31088;BME280;17745;55.914;37.554;2023-02-15T05:15:29;99554.78;;;-0.76;51.73
31088;BME280;17745;55.914;37.554;2023-02-15T05:17:57;99535.81;;;-0.84;51.71
31088;BME280;17745;55.914;37.554;2023-02-15T05:20:25;99556.78;;;-0.86;51.83
31088;BME280;17745;55.914;37.554;2023-02-15T05:22:57;99557.94;;;-0.97;52.04
31088;BME280;17745;55.914;37.554;2023-02-15T05:25:25;99556.53;;;-0.68;51.54
31088;BME280;17745;55.914;37.554;2023-02-15T05:28:18;99537.56;;;-0.77;51.61
31088;BME280;17745;55.914;37.554;2023-02-15T05:31:02;99523.03;;;-0.63;51.34
31088;BME280;17745;55.914;37.554;2023-02-15T05:33:34;99548.41;;;-0.65;51.28
31088;BME280;17745;55.914;37.554;2023-02-15T05:36:06;99564.28;;;-0.60;51.28
31088;BME280;17745;55.914;37.554;2023-02-15T05:38:40;99539.56;;;-0.87;51.62
31088;BME280;17745;55.914;37.554;2023-02-15T05:41:12;99563.66;;;-0.62;51.20
31088;BME280;17745;55.914;37.554;2023-02-15T05:43:42;99558.66;;;-0.40;50.91
31088;BME280;17745;55.914;37.554;2023-02-15T05:46:17;99552.44;;;-0.31;50.74
31088;BME280;17745;55.914;37.554;2023-02-15T05:48:46;99555.34;;;-0.25;50.64
31088;BME280;17745;55.914;37.554;2023-02-15T05:51:15;99574.81;;;-0.21;50.61
31088;BME280;17745;55.914;37.554;2023-02-15T05:53:47;99556.97;;;-0.24;50.44
31088;BME280;17745;55.914;37.554;2023-02-15T05:56:25;99582.59;;;-0.45;50.62
31088;BME280;17745;55.914;37.554;2023-02-15T05:58:55;99564.38;;;-0.45;50.72
31088;BME280;17745;55.914;37.554;2023-02-15T06:01:25;99577.38;;;-0.45;50.62
31088;BME280;17745;55.914;37.554;2023-02-15T06:03:56;99570.69;;;-0.39;50.55
31088;BME280;17745;55.914;37.554;2023-02-15T06:06:27;99573.56;;;-0.25;50.49
31088;BME280;17745;55.914;37.554;2023-02-15T06:09:02;99579.81;;;-0.43;50.64
31088;BME280;17745;55.914;37.554;2023-02-15T06:11:33;99588.28;;;-0.41;50.57
31088;BME280;17745;55.914;37.554;2023-02-15T06:14:09;99546.41;;;-0.31;50.48
31088;BME280;17745;55.914;37.554;2023-02-15T06:16:41;99563.88;;;-0.40;50.49
31088;BME280;17745;55.914;37.554;2023-02-15T06:19:27;99596.72;;;-0.39;50.46
31088;BME280;17745;55.914;37.554;2023-02-15T06:21:59;99622.00;;;-0.24;50.30
31088;BME280;17745;55.914;37.554;2023-02-15T06:24:30;99590.53;;;-0.38;50.33
31088;BME280;17745;55.914;37.554;2023-02-15T06:27:02;99592.84;;;-0.43;50.42
31088;BME280;17745;55.914;37.554;2023-02-15T06:29:47;99602.19;;;-0.25;50.14
31088;BME280;17745;55.914;37.554;2023-02-15T06:32:32;99607.50;;;0.05;49.96
31088;BME280;17745;55.914;37.554;2023-02-15T06:35:07;99597.69;;;0.15;49.74
31088;BME280;17745;55.914;37.554;2023-02-15T06:37:44;99594.38;;;-0.02;49.72
31088;BME280;17745;55.914;37.554;2023-02-15T06:40:18;99586.69;;;-0.19;49.66
31088;BME280;17745;55.914;37.554;2023-02-15T06:42:51;99601.72;;;-0.06;49.62
31088;BME280;17745;55.914;37.554;2023-02-15T06:45:32;99598.31;;;-0.30;49.82
31088;BME280;17745;55.914;37.554;2023-02-15T06:48:05;99586.00;;;-0.12;49.63
31088;BME280;17745;55.914;37.554;2023-02-15T06:50:41;99612.37;;;-0.16;49.58
31088;BME280;17745;55.914;37.554;2023-02-15T06:53:14;99606.59;;;-0.03;49.52
31088;BME280;17745;55.914;37.554;2023-02-15T06:55:43;99604.91;;;0.05;49.46
31088;BME280;17745;55.914;37.554;2023-02-15T06:58:25;99610.06;;;-0.10;49.57
31088;BME280;17745;55.914;37.554;2023-02-15T07:01:09;99593.62;;;0.12;49.33
31088;BME280;17745;55.914;37.554;2023-02-15T07:03:50;99617.34;;;-0.06;49.35
31088;BME280;17745;55.914;37.554;2023-02-15T07:06:32;99599.06;;;0.03;49.31
31088;BME280;17745;55.914;37.554;2023-02-15T07:09:07;99604.50;;;-0.07;49.38
31088;BME280;17745;55.914;37.554;2023-02-15T07:11:49;99566.91;;;-0.05;49.46
31088;BME280;17745;55.914;37.554;2023-02-15T07:14:35;99615.31;;;0.05;49.39
31088;BME280;17745;55.914;37.554;2023-02-15T07:17:09;99588.06;;;-0.31;49.92
31088;BME280;17745;55.914;37.554;2023-02-15T07:19:44;99604.03;;;-0.11;49.71
31088;BME280;17745;55.914;37.554;2023-02-15T07:22:23;99590.09;;;-0.50;50.40
31088;BME280;17745;55.914;37.554;2023-02-15T07:25:00;99616.00;;;-0.65;50.87
31088;BME280;17745;55.914;37.554;2023-02-15T07:27:46;99620.56;;;-0.27;50.20
31088;BME280;17745;55.914;37.554;2023-02-15T07:30:19;99637.91;;;-0.19;50.05
31088;BME280;17745;55.914;37.554;2023-02-15T07:33:00;99627.69;;;0.03;49.73
31088;BME280;17745;55.914;37.554;2023-02-15T07:35:49;99637.38;;;0.17;49.63
31088;BME280;17745;55.914;37.554;2023-02-15T07:38:27;99631.91;;;0.04;49.73
31088;BME280;17745;55.914;37.554;2023-02-15T07:41:17;99605.47;;;-0.08;49.86
31088;BME280;17745;55.914;37.554;2023-02-15T07:44:02;99618.91;;;-0.20;50.08
31088;BME280;17745;55.914;37.554;2023-02-15T07:46:40;99636.91;;;-0.10;49.93
31088;BME280;17745;55.914;37.554;2023-02-15T07:49:39;99624.06;;;0.12;49.67
31088;BME280;17745;55.914;37.554;2023-02-15T07:52:22;99618.97;;;0.42;49.29
31088;BME280;17745;55.914;37.554;2023-02-15T07:55:03;99617.81;;;0.45;49.10
31088;BME280;17745;55.914;37.554;2023-02-15T07:57:50;99610.81;;;0.60;48.91
31088;BME280;17745;55.914;37.554;2023-02-15T08:01:47;99640.25;;;0.22;49.02
31088;BME280;17745;55.914;37.554;2023-02-15T08:04:58;99634.06;;;0.47;48.74
31088;BME280;17745;55.914;37.554;2023-02-15T08:07:28;99631.97;;;0.80;48.50
31088;BME280;17745;55.914;37.554;2023-02-15T08:10:06;99642.06;;;0.83;48.50
31088;BME280;17745;55.914;37.554;2023-02-15T08:13:44;99637.03;;;0.97;48.49
31088;BME280;17745;55.914;37.554;2023-02-15T08:16:29;99658.87;;;0.96;48.42
31088;BME280;17745;55.914;37.554;2023-02-15T08:19:02;99654.81;;;0.93;48.22
31088;BME280;17745;55.914;37.554;2023-02-15T08:21:39;99637.81;;;0.82;48.16
31088;BME280;17745;55.914;37.554;2023-02-15T08:24:19;99653.31;;;0.61;48.11
31088;BME280;17745;55.914;37.554;2023-02-15T08:26:49;99646.25;;;0.69;48.12
31088;BME280;17745;55.914;37.554;2023-02-15T08:29:25;99650.81;;;0.52;48.42
31088;BME280;17745;55.914;37.554;2023-02-15T08:32:00;99659.41;;;0.76;48.28
31088;BME280;17745;55.914;37.554;2023-02-15T08:34:33;99662.03;;;0.53;48.46
31088;BME280;17745;55.914;37.554;2023-02-15T08:37:08;99637.38;;;0.17;48.87
31088;BME280;17745;55.914;37.554;2023-02-15T08:39:35;99666.91;;;0.33;48.89
31088;BME280;17745;55.914;37.554;2023-02-15T08:42:05;99650.09;;;0.59;48.74
31088;BME280;17745;55.914;37.554;2023-02-15T08:44:55;99663.63;;;0.31;48.84
31088;BME280;17745;55.914;37.554;2023-02-15T08:47:39;99663.41;;;0.17;49.19
31088;BME280;17745;55.914;37.554;2023-02-15T08:50:09;99667.00;;;0.39;49.05
31088;BME280;17745;55.914;37.554;2023-02-15T08:52:45;99672.66;;;0.66;48.84
31088;BME280;17745;55.914;37.554;2023-02-15T08:55:15;99590.44;;;0.64;48.74
31088;BME280;17745;55.914;37.554;2023-02-15T08:57:46;99657.19;;;0.65;48.54
31088;BME280;17745;55.914;37.554;2023-02-15T09:00:15;99668.31;;;0.82;48.56
31088;BME280;17745;55.914;37.554;2023-02-15T09:02:50;99665.56;;;1.13;48.29
31088;BME280;17745;55.914;37.554;2023-02-15T09:05:19;99661.34;;;1.42;47.93
31088;BME280;17745;55.914;37.554;2023-02-15T09:07:52;99668.16;;;1.43;47.66
31088;BME280;17745;55.914;37.554;2023-02-15T09:10:23;99658.91;;;1.56;47.51
31088;BME280;17745;55.914;37.554;2023-02-15T09:12:52;99644.97;;;1.34;47.66
31088;BME280;17745;55.914;37.554;2023-02-15T09:15:20;99660.72;;;1.40;47.57
31088;BME280;17745;55.914;37.554;2023-02-15T09:17:50;99616.25;;;1.34;47.59
31088;BME280;17745;55.914;37.554;2023-02-15T09:20:20;99645.84;;;1.41;47.64
31088;BME280;17745;55.914;37.554;2023-02-15T09:22:54;99652.59;;;1.20;47.79
31088;BME280;17745;55.914;37.554;2023-02-15T09:25:26;99664.56;;;1.14;47.87
31088;BME280;17745;55.914;37.554;2023-02-15T09:27:55;99669.25;;;1.34;47.60
31088;BME280;17745;55.914;37.554;2023-02-15T09:30:24;99675.81;;;1.45;47.42
31088;BME280;17745;55.914;37.554;2023-02-15T09:32:53;99667.53;;;1.56;47.35
31088;BME280;17745;55.914;37.554;2023-02-15T09:35:21;99652.50;;;1.59;47.41
31088;BME280;17745;55.914;37.554;2023-02-15T09:37:57;99683.28;;;1.33;47.29
31088;BME280;17745;55.914;37.554;2023-02-15T09:40:25;99676.25;;;1.04;47.81
31088;BME280;17745;55.914;37.554;2023-02-15T09:43:13;99689.47;;;1.02;47.88
31088;BME280;17745;55.914;37.554;2023-02-15T09:45:56;99682.53;;;0.71;48.49
31088;BME280;17745;55.914;37.554;2023-02-15T09:48:38;99684.75;;;0.82;48.41
31088;BME280;17745;55.914;37.554;2023-02-15T09:51:26;99678.25;;;0.63;48.11
31088;BME280;17745;55.914;37.554;2023-02-15T09:54:16;99691.22;;;0.87;47.86
31088;BME280;17745;55.914;37.554;2023-02-15T09:56:52;99698.03;;;0.49;48.05
31088;BME280;17745;55.914;37.554;2023-02-15T09:59:30;99705.91;;;0.64;47.96
31088;BME280;17745;55.914;37.554;2023-02-15T10:02:12;99694.31;;;0.67;47.97
31088;BME280;17745;55.914;37.554;2023-02-15T10:05:01;99701.34;;;0.66;47.86
31088;BME280;17745;55.914;37.554;2023-02-15T10:10:39;99702.50;;;0.09;49.06
31088;BME280;17745;55.914;37.554;2023-02-15T10:13:23;99701.03;;;0.84;47.98
31088;BME280;17745;55.914;37.554;2023-02-15T10:16:09;99671.63;;;0.91;47.54
31088;BME280;17745;55.914;37.554;2023-02-15T10:18:52;99709.75;;;0.92;47.42
31088;BME280;17745;55.914;37.554;2023-02-15T10:21:36;99701.16;;;1.06;47.34
31088;BME280;17745;55.914;37.554;2023-02-15T10:24:23;99712.91;;;0.87;47.61
31088;BME280;17745;55.914;37.554;2023-02-15T10:27:02;99712.81;;;0.95;47.68
31088;BME280;17745;55.914;37.554;2023-02-15T10:29:35;99721.56;;;1.03;47.79
31088;BME280;17745;55.914;37.554;2023-02-15T10:32:13;99721.59;;;1.18;47.86
31088;BME280;17745;55.914;37.554;2023-02-15T10:34:51;99718.03;;;0.95;48.23
31088;BME280;17745;55.914;37.554;2023-02-15T10:37:46;99688.97;;;0.83;48.70
31088;BME280;17745;55.914;37.554;2023-02-15T10:40:25;99728.91;;;0.84;48.93
31088;BME280;17745;55.914;37.554;2023-02-15T10:43:13;99734.53;;;1.11;48.65
31088;BME280;17745;55.914;37.554;2023-02-15T10:45:46;99729.28;;;0.96;49.02
31088;BME280;17745;55.914;37.554;2023-02-15T10:48:57;99729.06;;;0.82;49.27
31088;BME280;17745;55.914;37.554;2023-02-15T10:51:39;99731.81;;;0.81;49.51
31088;BME280;17745;55.914;37.554;2023-02-15T10:54:20;99750.16;;;0.96;49.46
31088;BME280;17745;55.914;37.554;2023-02-15T10:57:01;99741.03;;;0.92;49.58
31088;BME280;17745;55.914;37.554;2023-02-15T10:59:44;99754.88;;;0.92;49.53
31088;BME280;17745;55.914;37.554;2023-02-15T11:02:24;99748.53;;;0.71;49.91
31088;BME280;17745;55.914;37.554;2023-02-15T11:05:16;99764.16;;;0.71;49.96
31088;BME280;17745;55.914;37.554;2023-02-15T11:07:49;99748.66;;;0.78;50.08
31088;BME280;17745;55.914;37.554;2023-02-15T11:10:28;99762.59;;;0.85;50.07
31088;BME280;17745;55.914;37.554;2023-02-15T11:13:04;99771.28;;;1.01;49.97
31088;BME280;17745;55.914;37.554;2023-02-15T11:15:42;99771.50;;;1.14;49.98
31088;BME280;17745;55.914;37.554;2023-02-15T11:18:23;99768.47;;;1.26;49.95
31088;BME280;17745;55.914;37.554;2023-02-15T11:20:59;99756.50;;;1.17;50.20
31088;BME280;17745;55.914;37.554;2023-02-15T11:23:29;99777.53;;;0.92;50.46
31088;BME280;17745;55.914;37.554;2023-02-15T11:26:01;99775.75;;;0.92;50.45
31088;BME280;17745;55.914;37.554;2023-02-15T11:28:33;99778.22;;;0.85;50.54
31088;BME280;17745;55.914;37.554;2023-02-15T11:31:20;99774.59;;;0.95;50.51
31088;BME280;17745;55.914;37.554;2023-02-15T11:38:22;99781.19;;;1.06;50.39
31088;BME280;17745;55.914;37.554;2023-02-15T11:44:11;99793.59;;;1.04;49.79
31088;BME280;17745;55.914;37.554;2023-02-15T11:49:53;99795.44;;;0.71;49.49
31088;BME280;17745;55.914;37.554;2023-02-15T11:52:56;99792.59;;;0.58;49.43
31088;BME280;17745;55.914;37.554;2023-02-15T11:55:27;99786.59;;;0.49;49.43
31088;BME280;17745;55.914;37.554;2023-02-15T11:58:01;99802.94;;;0.43;49.54
31088;BME280;17745;55.914;37.554;2023-02-15T12:00:36;99783.00;;;0.50;49.17
31088;BME280;17745;55.914;37.554;2023-02-15T12:03:14;99795.50;;;0.32;49.32
31088;BME280;17745;55.914;37.554;2023-02-15T12:05:49;99800.81;;;0.38;49.07
31088;BME280;17745;55.914;37.554;2023-02-15T12:08:34;99798.91;;;0.32;49.12
31088;BME280;17745;55.914;37.554;2023-02-15T12:11:12;99800.31;;;0.51;48.85
31088;BME280;17745;55.914;37.554;2023-02-15T12:21:57;99805.41;;;0.36;48.73
31088;BME280;17745;55.914;37.554;2023-02-15T12:24:30;99815.81;;;0.68;48.37
31088;BME280;17745;55.914;37.554;2023-02-15T12:31:20;99813.81;;;0.78;48.12
31088;BME280;17745;55.914;37.554;2023-02-15T12:33:52;99802.03;;;0.59;47.86
31088;BME280;17745;55.914;37.554;2023-02-15T12:36:56;99816.16;;;0.65;47.85
31088;BME280;17745;55.914;37.554;2023-02-15T12:43:39;99823.25;;;0.79;47.71
31088;BME280;17745;55.914;37.554;2023-02-15T12:46:41;99840.00;;;0.85;47.70
31088;BME280;17745;55.914;37.554;2023-02-15T12:53:16;99829.47;;;0.70;47.54
31088;BME280;17745;55.914;37.554;2023-02-15T12:55:52;99819.41;;;0.35;47.90
31088;BME280;17745;55.914;37.554;2023-02-15T12:58:30;99847.50;;;0.48;47.89
31088;BME280;17745;55.914;37.554;2023-02-15T13:01:23;99844.47;;;0.36;47.96
31088;BME280;17745;55.914;37.554;2023-02-15T13:04:04;99834.53;;;0.40;47.99
31088;BME280;17745;55.914;37.554;2023-02-15T13:06:51;99844.28;;;0.46;48.07
31088;BME280;17745;55.914;37.554;2023-02-15T13:09:40;99835.44;;;0.55;48.05
31088;BME280;17745;55.914;37.554;2023-02-15T13:12:18;99848.91;;;0.67;47.98
31088;BME280;17745;55.914;37.554;2023-02-15T13:15:31;99862.34;;;0.79;47.90
31088;BME280;17745;55.914;37.554;2023-02-15T13:18:16;99860.12;;;0.68;47.86
31088;BME280;17745;55.914;37.554;2023-02-15T13:20:46;99874.75;;;0.77;47.92
31088;BME280;17745;55.914;37.554;2023-02-15T13:23:26;99868.12;;;0.66;47.95
31088;BME280;17745;55.914;37.554;2023-02-15T13:26:04;99877.72;;;0.66;47.81
31088;BME280;17745;55.914;37.554;2023-02-15T13:28:39;99883.00;;;0.57;47.79
31088;BME280;17745;55.914;37.554;2023-02-15T13:31:20;99863.84;;;0.42;47.83
31088;BME280;17745;55.914;37.554;2023-02-15T13:34:01;99884.75;;;0.09;48.31
31088;BME280;17745;55.914;37.554;2023-02-15T13:36:37;99878.72;;;0.25;48.05
31088;BME280;17745;55.914;37.554;2023-02-15T13:39:26;99878.25;;;0.13;48.26
31088;BME280;17745;55.914;37.554;2023-02-15T13:42:24;99879.44;;;0.02;48.53
31088;BME280;17745;55.914;37.554;2023-02-15T13:45:10;99886.09;;;0.05;48.36
31088;BME280;17745;55.914;37.554;2023-02-15T13:47:55;99880.84;;;0.21;48.12
31088;BME280;17745;55.914;37.554;2023-02-15T13:50:48;99895.16;;;0.25;48.04
31088;BME280;17745;55.914;37.554;2023-02-15T13:54:02;99894.81;;;0.28;47.99
31088;BME280;17745;55.914;37.554;2023-02-15T13:56:51;99895.66;;;0.12;48.06
31088;BME280;17745;55.914;37.554;2023-02-15T13:59:53;99877.84;;;-0.65;49.05
31088;BME280;17745;55.914;37.554;2023-02-15T14:06:00;99901.44;;;-0.25;48.27
31088;BME280;17745;55.914;37.554;2023-02-15T14:08:43;99899.31;;;-0.30;48.52
31088;BME280;17745;55.914;37.554;2023-02-15T14:11:21;99903.22;;;-0.43;48.65
31088;BME280;17745;55.914;37.554;2023-02-15T14:14:15;99910.03;;;-0.41;48.68
31088;BME280;17745;55.914;37.554;2023-02-15T14:16:58;99917.34;;;-0.53;49.06
31088;BME280;17745;55.914;37.554;2023-02-15T14:19:37;99906.00;;;-0.44;48.82
31088;BME280;17745;55.914;37.554;2023-02-15T14:22:21;99911.53;;;-0.47;48.75
31088;BME280;17745;55.914;37.554;2023-02-15T14:25:05;99918.19;;;-0.36;48.63
31088;BME280;17745;55.914;37.554;2023-02-15T14:28:08;99942.09;;;-0.08;48.12
31088;BME280;17745;55.914;37.554;2023-02-15T14:31:06;99937.88;;;-0.09;48.16